createdAt,value
2023-05-20T00:01:50.808Z,75.67
2023-05-20T00:04:17.684Z,75.64
2023-05-20T00:06:44.450Z,76.29
2023-05-20T00:09:11.201Z,76.00
2023-05-20T00:11:38.010Z,76.01
2023-05-20T00:14:04.673Z,76.08
2023-05-20T00:16:31.410Z,75.83
2023-05-20T00:18:58.150Z,75.78
2023-05-20T00:21:24.862Z,75.89
2023-05-20T00:23:51.570Z,76.02
2023-05-20T00:26:18.253Z,76.09
2023-05-20T00:28:51.613Z,76.02
2023-05-20T00:31:18.302Z,75.35
2023-05-20T00:33:44.971Z,76.11
2023-05-20T00:36:11.663Z,76.42
2023-05-20T00:38:38.691Z,76.38
2023-05-20T00:41:05.373Z,76.19
2023-05-20T00:43:32.051Z,75.76
2023-05-20T00:45:58.826Z,75.51
2023-05-20T00:48:25.696Z,75.76
2023-05-20T00:50:52.331Z,75.37
2023-05-20T00:53:19.056Z,75.84
2023-05-20T00:55:45.895Z,75.27
2023-05-20T00:58:12.874Z,74.95
2023-05-20T01:00:39.518Z,75.03
2023-05-20T01:03:06.344Z,74.84
2023-05-20T01:05:33.358Z,75.03
2023-05-20T01:08:00.239Z,75.31
2023-05-20T01:10:27.050Z,75.92
2023-05-20T01:12:54.758Z,74.94
2023-05-20T01:15:21.569Z,75.43
2023-05-20T01:17:48.929Z,75.06
2023-05-20T01:20:15.767Z,74.72
2023-05-20T01:22:49.235Z,75.21
2023-05-20T01:25:15.943Z,75.00
2023-05-20T01:27:42.584Z,75.40
2023-05-20T01:30:09.511Z,75.65
2023-05-20T01:32:37.636Z,75.09
2023-05-20T01:35:07.404Z,75.90
2023-05-20T01:37:34.972Z,75.52
2023-05-20T01:40:01.659Z,75.49
2023-05-20T01:42:28.968Z,76.18
2023-05-20T01:44:55.670Z,75.90
2023-05-20T01:47:22.336Z,76.02
2023-05-20T01:49:49.768Z,76.35
2023-05-20T01:52:16.496Z,76.82
2023-05-20T01:54:43.176Z,76.74
2023-05-20T01:57:09.866Z,76.74
2023-05-20T01:59:36.889Z,77.10
2023-05-20T02:02:03.664Z,77.19
2023-05-20T02:04:30.368Z,77.29
2023-05-20T02:06:57.045Z,77.51
2023-05-20T02:09:23.966Z,77.91
2023-05-20T02:11:52.403Z,76.89
2023-05-20T02:14:19.116Z,77.17
2023-05-20T02:16:46.545Z,77.16
2023-05-20T02:19:13.498Z,77.58
2023-05-20T02:21:44.229Z,77.83
2023-05-20T02:24:10.922Z,77.96
2023-05-20T02:26:37.616Z,77.77
2023-05-20T02:29:04.302Z,77.81
2023-05-20T02:31:31.299Z,78.02
2023-05-20T02:33:58.086Z,77.48
2023-05-20T02:36:24.834Z,77.57
2023-05-20T02:38:51.610Z,77.43
2023-05-20T02:41:18.302Z,77.41
2023-05-20T02:43:45.530Z,77.49
2023-05-20T02:46:12.251Z,77.54
2023-05-20T02:48:39.790Z,77.94
2023-05-20T02:51:06.806Z,77.41
2023-05-20T02:53:33.613Z,77.52
2023-05-20T02:56:00.452Z,77.47
2023-05-20T02:58:27.878Z,77.44
2023-05-20T03:00:54.805Z,78.03
2023-05-20T03:03:21.953Z,77.85
2023-05-20T03:05:48.642Z,77.88
2023-05-20T03:08:15.369Z,77.61
2023-05-20T03:10:42.036Z,77.36
2023-05-20T03:13:08.964Z,77.56
2023-05-20T03:15:37.909Z,77.97
2023-05-20T03:18:04.968Z,77.88
2023-05-20T03:20:32.887Z,77.97
2023-05-20T03:22:59.801Z,78.08
2023-05-20T03:25:26.833Z,77.91
2023-05-20T03:27:53.485Z,77.89
2023-05-20T03:30:20.405Z,77.92
2023-05-20T03:32:48.180Z,78.09
2023-05-20T03:35:15.130Z,78.36
2023-05-20T03:37:41.961Z,78.46
2023-05-20T03:40:10.586Z,78.36
2023-05-20T03:42:38.037Z,78.52
2023-05-20T03:45:05.745Z,78.35
2023-05-20T03:47:37.840Z,78.65
2023-05-20T03:50:06.804Z,79.03
2023-05-20T03:52:34.830Z,78.82
2023-05-20T03:55:01.712Z,78.91
2023-05-20T03:57:29.674Z,79.22
2023-05-20T03:59:56.517Z,79.13
2023-05-20T04:02:23.368Z,79.25
2023-05-20T04:04:53.193Z,79.18
2023-05-20T04:07:20.016Z,78.84
2023-05-20T04:09:47.046Z,79.44
2023-05-20T04:12:14.158Z,79.30
2023-05-20T04:14:42.472Z,79.09
2023-05-20T04:17:09.820Z,79.22
2023-05-20T04:19:38.423Z,79.28
2023-05-20T04:22:05.229Z,79.35
2023-05-20T04:24:31.883Z,79.32
2023-05-20T04:26:58.676Z,79.43
2023-05-20T04:29:27.818Z,79.42
2023-05-20T04:31:54.632Z,78.82
2023-05-20T04:34:27.019Z,78.49
2023-05-20T04:36:54.053Z,78.99
2023-05-20T04:39:20.855Z,78.60
2023-05-20T04:41:54.902Z,78.35
2023-05-20T04:44:24.898Z,78.61
2023-05-20T04:46:51.854Z,78.46
2023-05-20T04:49:18.545Z,78.20
2023-05-20T04:51:45.277Z,78.91
2023-05-20T04:54:12.102Z,78.64
2023-05-20T04:56:38.770Z,78.78
2023-05-20T04:59:05.433Z,78.46
2023-05-20T05:01:32.169Z,78.60
2023-05-20T05:03:59.113Z,78.59
2023-05-20T05:06:25.897Z,78.79
2023-05-20T05:08:52.729Z,78.87
2023-05-20T05:11:19.519Z,78.24
2023-05-20T05:13:46.317Z,78.61
2023-05-20T05:16:13.831Z,78.55
2023-05-20T05:18:40.610Z,78.15
2023-05-20T05:21:07.341Z,78.12
2023-05-20T05:23:35.618Z,77.96
2023-05-20T05:26:02.459Z,78.07
2023-05-20T05:28:29.160Z,78.36
2023-05-20T05:30:56.719Z,78.40
2023-05-20T05:33:23.539Z,78.24
2023-05-20T05:35:50.406Z,78.34
2023-05-20T05:38:17.274Z,78.43
2023-05-20T05:40:44.227Z,78.64
2023-05-20T05:43:11.545Z,78.35
2023-05-20T05:45:39.006Z,78.38
2023-05-20T05:48:06.112Z,78.73
2023-05-20T05:50:32.992Z,79.23
2023-05-20T05:52:59.706Z,79.37
2023-05-20T05:55:26.437Z,79.79
2023-05-20T05:57:54.707Z,80.08
2023-05-20T06:00:22.337Z,80.17
2023-05-20T06:02:49.509Z,79.39
2023-05-20T06:05:31.968Z,78.42
2023-05-20T06:07:58.736Z,78.81
2023-05-20T06:10:25.955Z,78.84
2023-05-20T06:12:52.657Z,79.75
2023-05-20T06:15:19.387Z,79.80
2023-05-20T06:17:46.334Z,79.12
2023-05-20T06:20:14.037Z,78.54
2023-05-20T06:22:40.955Z,78.85
2023-05-20T06:25:08.078Z,78.30
2023-05-20T06:27:35.775Z,77.64
2023-05-20T06:30:05.040Z,78.35
2023-05-20T06:32:34.634Z,76.40
2023-05-20T06:35:01.524Z,77.60
2023-05-20T06:37:28.228Z,75.21
2023-05-20T06:39:55.372Z,75.80
2023-05-20T06:42:22.496Z,75.74
2023-05-20T06:45:02.776Z,76.45
2023-05-20T06:47:40.945Z,73.76
2023-05-20T06:50:08.783Z,74.81
2023-05-20T06:52:36.086Z,75.60
2023-05-20T06:55:03.393Z,75.83
2023-05-20T06:57:30.221Z,73.49
2023-05-20T06:59:58.021Z,72.80
2023-05-20T07:02:25.445Z,73.37
2023-05-20T07:04:53.228Z,72.95
2023-05-20T07:07:20.013Z,73.48
2023-05-20T07:09:46.886Z,72.75
2023-05-20T07:12:13.839Z,70.51
2023-05-20T07:14:40.531Z,72.23
2023-05-20T07:17:07.277Z,71.82
2023-05-20T07:19:34.092Z,72.94
2023-05-20T07:22:01.010Z,70.24
2023-05-20T07:24:46.280Z,68.62
2023-05-20T07:27:13.340Z,67.97
2023-05-20T07:29:40.309Z,70.13
2023-05-20T07:32:08.810Z,72.71
2023-05-20T07:34:35.678Z,69.47
2023-05-20T07:37:02.780Z,70.32
2023-05-20T07:39:29.533Z,68.30
2023-05-20T07:41:56.213Z,69.39
2023-05-20T07:44:23.792Z,68.49
2023-05-20T07:46:52.322Z,69.84
2023-05-20T07:49:20.264Z,70.58
2023-05-20T07:51:47.767Z,69.16
2023-05-20T07:54:16.196Z,69.40
2023-05-20T07:56:45.645Z,67.97
2023-05-20T07:59:12.588Z,70.10
2023-05-20T08:01:43.391Z,68.91
2023-05-20T08:04:11.706Z,69.56
2023-05-20T08:06:38.740Z,71.27
2023-05-20T08:09:08.690Z,68.48
2023-05-20T08:11:39.937Z,68.34
2023-05-20T08:14:06.692Z,66.31
2023-05-20T08:16:38.820Z,67.92
2023-05-20T08:19:05.730Z,68.36
2023-05-20T08:21:32.597Z,67.33
2023-05-20T08:23:59.503Z,68.41
2023-05-20T08:26:27.066Z,65.40
2023-05-20T08:28:54.984Z,65.67
2023-05-20T08:31:23.089Z,67.01
2023-05-20T08:33:50.741Z,67.93
2023-05-20T08:36:19.601Z,66.33
2023-05-20T08:38:46.702Z,65.40
2023-05-20T08:41:13.368Z,67.92
2023-05-20T08:43:42.654Z,67.28
2023-05-20T08:46:09.815Z,66.38
2023-05-20T08:48:37.125Z,66.08
2023-05-20T08:51:04.313Z,66.20
2023-05-20T08:53:31.198Z,65.71
2023-05-20T08:56:02.922Z,66.07
2023-05-20T08:58:30.156Z,65.72
2023-05-20T09:00:56.813Z,66.15
2023-05-20T09:03:24.553Z,65.40
2023-05-20T09:05:51.624Z,65.01
2023-05-20T09:08:18.253Z,63.87
2023-05-20T09:10:44.917Z,64.30
2023-05-20T09:13:11.776Z,65.16
2023-05-20T09:15:39.249Z,62.29
2023-05-20T09:18:06.920Z,62.10
2023-05-20T09:20:37.875Z,63.51
2023-05-20T09:23:05.279Z,63.55
2023-05-20T09:25:32.654Z,61.99
2023-05-20T09:27:59.502Z,61.91
2023-05-20T09:30:26.295Z,61.20
2023-05-20T09:32:54.136Z,60.88
2023-05-20T09:35:21.317Z,58.49
2023-05-20T09:37:48.186Z,61.61
2023-05-20T09:40:15.482Z,60.39
2023-05-20T09:42:53.786Z,61.04
2023-05-20T09:45:20.876Z,62.15
2023-05-20T09:47:47.939Z,61.33
2023-05-20T09:50:15.223Z,60.58
2023-05-20T09:52:42.354Z,59.71
2023-05-20T09:55:10.647Z,60.17
2023-05-20T09:57:37.743Z,62.84
2023-05-20T10:00:13.499Z,57.27
2023-05-20T10:02:45.000Z,57.02
2023-05-20T10:05:14.470Z,54.23
2023-05-20T10:07:42.543Z,54.35
2023-05-20T10:10:28.394Z,57.01
2023-05-20T10:13:06.505Z,56.63
2023-05-20T10:15:43.485Z,56.52
2023-05-20T10:18:36.842Z,57.90
2023-05-20T10:21:03.611Z,55.43
2023-05-20T10:23:30.857Z,55.07
2023-05-20T10:25:58.064Z,55.51
2023-05-20T10:28:31.926Z,55.33
2023-05-20T10:30:59.204Z,51.77
2023-05-20T10:33:27.496Z,55.63
2023-05-20T10:35:54.557Z,55.56
2023-05-20T10:38:21.686Z,55.45
2023-05-20T10:40:48.329Z,53.31
2023-05-20T10:43:15.917Z,57.26
2023-05-20T10:45:52.271Z,55.29
2023-05-20T10:48:26.481Z,51.67
2023-05-20T10:51:00.027Z,53.58
2023-05-20T10:53:33.919Z,52.17
2023-05-20T10:56:01.578Z,52.49
2023-05-20T10:58:28.333Z,51.75
2023-05-20T11:00:55.616Z,55.75
2023-05-20T11:03:22.839Z,56.40
2023-05-20T11:05:49.651Z,54.45
2023-05-20T11:08:27.779Z,55.79
2023-05-20T11:10:56.436Z,55.11
2023-05-20T11:13:23.132Z,54.68
2023-05-20T11:15:50.280Z,54.03
2023-05-20T11:18:18.873Z,55.11
2023-05-20T11:20:49.114Z,53.01
2023-05-20T11:23:16.010Z,52.97
2023-05-20T11:25:42.821Z,52.95
2023-05-20T11:28:13.174Z,53.40
2023-05-20T11:30:40.007Z,50.66
2023-05-20T11:33:06.959Z,50.48
2023-05-20T11:35:33.756Z,53.72
2023-05-20T11:38:04.182Z,52.95
2023-05-20T11:40:38.999Z,51.58
2023-05-20T11:43:14.041Z,49.40
2023-05-20T11:45:41.619Z,51.71
2023-05-20T11:48:08.986Z,51.36
2023-05-20T11:50:37.102Z,51.38
2023-05-20T11:53:03.835Z,51.70
2023-05-20T11:55:32.338Z,50.93
2023-05-20T11:57:59.259Z,51.50
2023-05-20T12:00:27.628Z,52.96
2023-05-20T12:02:56.044Z,52.77
2023-05-20T12:05:23.542Z,48.36
2023-05-20T12:07:50.226Z,51.79
2023-05-20T12:10:16.953Z,51.34
2023-05-20T12:12:45.340Z,52.48
2023-05-20T12:15:12.541Z,51.63
2023-05-20T12:18:05.395Z,51.94
2023-05-20T12:20:34.803Z,51.81
2023-05-20T12:23:01.750Z,52.18
2023-05-20T12:25:28.551Z,49.90
2023-05-20T12:27:55.605Z,51.04
2023-05-20T12:30:22.675Z,47.78
2023-05-20T12:32:52.739Z,51.00
2023-05-20T12:35:38.511Z,51.34
2023-05-20T12:38:05.325Z,46.46
2023-05-20T12:40:33.485Z,46.89
2023-05-20T12:43:06.359Z,49.36
2023-05-20T12:45:33.008Z,48.46
2023-05-20T12:47:59.857Z,48.60
2023-05-20T12:50:26.848Z,47.40
2023-05-20T12:52:53.570Z,45.47
2023-05-20T12:55:20.380Z,47.19
2023-05-20T12:57:47.306Z,49.10
2023-05-20T13:00:14.322Z,47.51
2023-05-20T13:02:42.411Z,46.21
2023-05-20T13:05:09.431Z,48.89
2023-05-20T13:07:36.223Z,47.27
2023-05-20T13:10:02.891Z,47.14
2023-05-20T13:12:29.853Z,49.41
2023-05-20T13:14:56.503Z,49.90
2023-05-20T13:17:23.140Z,45.73
2023-05-20T13:19:50.520Z,44.28
2023-05-20T13:22:17.225Z,44.66
2023-05-20T13:24:43.874Z,43.60
2023-05-20T13:27:10.858Z,44.31
2023-05-20T13:29:37.514Z,45.17
2023-05-20T13:32:04.218Z,45.27
2023-05-20T13:34:31.818Z,44.40
2023-05-20T13:36:58.491Z,45.33
2023-05-20T13:39:25.166Z,45.93
2023-05-20T13:41:53.670Z,44.22
2023-05-20T13:44:20.420Z,44.33
2023-05-20T13:46:47.067Z,45.52
2023-05-20T13:49:13.781Z,44.27
2023-05-20T13:51:40.511Z,44.40
2023-05-20T13:54:07.165Z,43.63
2023-05-20T13:56:33.788Z,44.44
2023-05-20T13:59:00.439Z,44.90
2023-05-20T14:01:28.077Z,42.18
2023-05-20T14:03:54.817Z,42.27
2023-05-20T14:06:21.578Z,44.80
2023-05-20T14:08:53.783Z,44.28
2023-05-20T14:11:21.705Z,46.16
2023-05-20T14:13:48.343Z,45.88
2023-05-20T14:16:15.141Z,44.74
2023-05-20T14:18:42.041Z,45.26
2023-05-20T14:21:08.722Z,43.52
2023-05-20T14:23:35.346Z,43.71
2023-05-20T14:26:01.982Z,43.43
2023-05-20T14:28:28.646Z,45.46
2023-05-20T14:30:55.273Z,45.47
2023-05-20T14:33:21.984Z,44.20
2023-05-20T14:35:48.616Z,44.86
2023-05-20T14:38:15.264Z,44.63
2023-05-20T14:40:41.919Z,45.00
2023-05-20T14:43:08.595Z,46.13
2023-05-20T14:45:35.263Z,45.68
2023-05-20T14:48:02.172Z,44.76
2023-05-20T14:50:28.932Z,45.20
2023-05-20T14:52:55.580Z,45.22
2023-05-20T14:55:22.292Z,46.67
2023-05-20T14:57:49.156Z,47.57
2023-05-20T15:00:16.021Z,47.45
2023-05-20T15:02:42.880Z,46.24
2023-05-20T15:05:12.220Z,46.64
2023-05-20T15:07:39.113Z,47.32
2023-05-20T15:10:05.917Z,49.34
2023-05-20T15:12:32.667Z,49.17
2023-05-20T15:14:59.320Z,50.28
2023-05-20T15:17:25.996Z,48.71
2023-05-20T15:19:52.773Z,49.29
2023-05-20T15:22:19.443Z,50.44
2023-05-20T15:24:46.481Z,49.88
2023-05-20T15:27:16.582Z,49.63
2023-05-20T15:29:43.318Z,49.63
2023-05-20T15:32:10.019Z,49.93
2023-05-20T15:34:36.716Z,48.26
2023-05-20T15:37:03.404Z,48.59
2023-05-20T15:39:30.098Z,50.80
2023-05-20T15:41:58.950Z,49.99
2023-05-20T15:44:25.629Z,50.12
2023-05-20T15:46:52.339Z,49.35
2023-05-20T15:49:19.012Z,48.28
2023-05-20T15:51:52.334Z,49.90
2023-05-20T15:54:26.168Z,49.72
2023-05-20T15:56:52.884Z,52.17
2023-05-20T15:59:19.545Z,51.67
2023-05-20T16:01:46.510Z,49.04
2023-05-20T16:04:13.293Z,48.79
2023-05-20T16:06:39.999Z,47.96
2023-05-20T16:09:06.649Z,51.44
2023-05-20T16:11:33.397Z,47.62
2023-05-20T16:14:00.322Z,45.76
2023-05-20T16:16:27.022Z,47.05
2023-05-20T16:18:53.752Z,49.89
2023-05-20T16:21:20.736Z,49.35
2023-05-20T16:23:47.405Z,48.05
2023-05-20T16:26:14.554Z,49.90
2023-05-20T16:28:41.280Z,47.65
2023-05-20T16:31:07.926Z,48.08
2023-05-20T16:33:34.573Z,47.68
2023-05-20T16:36:01.534Z,49.56
2023-05-20T16:38:28.226Z,49.94
2023-05-20T16:40:54.863Z,48.91
2023-05-20T16:43:21.537Z,50.83
2023-05-20T16:45:48.273Z,49.83
2023-05-20T16:48:15.377Z,51.53
2023-05-20T16:50:43.262Z,51.19
2023-05-20T16:53:09.912Z,50.82
2023-05-20T16:55:36.543Z,50.54
2023-05-20T16:58:03.202Z,52.51
2023-05-20T17:00:30.367Z,50.35
2023-05-20T17:02:57.044Z,48.32
2023-05-20T17:05:25.675Z,48.03
2023-05-20T17:07:52.401Z,48.30
2023-05-20T17:10:19.134Z,49.22
2023-05-20T17:12:45.835Z,50.34
2023-05-20T17:15:12.530Z,51.17
2023-05-20T17:20:06.246Z,52.18
2023-05-20T17:22:32.917Z,54.45
2023-05-20T17:24:59.568Z,52.70
2023-05-20T17:27:33.808Z,53.62
2023-05-20T17:30:00.445Z,53.80
2023-05-20T17:32:27.166Z,54.06
2023-05-20T17:34:53.823Z,54.40
2023-05-20T17:43:32.625Z,56.13
2023-05-20T17:45:59.300Z,54.88
2023-05-20T17:48:25.980Z,55.92
2023-05-20T17:50:53.941Z,55.98
2023-05-20T17:53:22.175Z,55.67
2023-05-20T17:55:49.555Z,56.90
2023-05-20T17:58:16.254Z,56.06
2023-05-20T18:00:42.982Z,56.24
2023-05-20T18:03:09.913Z,55.99
2023-05-20T18:05:36.839Z,56.82
2023-05-20T18:08:03.687Z,57.62
2023-05-20T18:10:30.620Z,56.60
2023-05-20T18:12:57.298Z,56.69
2023-05-20T18:15:23.947Z,56.69
2023-05-20T18:17:50.765Z,57.92
2023-05-20T18:20:17.487Z,57.16
2023-05-20T18:22:47.162Z,57.54
2023-05-20T18:25:14.545Z,57.31
2023-05-20T18:27:41.511Z,58.72
2023-05-20T18:30:08.453Z,58.77
2023-05-20T18:32:35.154Z,59.48
2023-05-20T18:35:02.943Z,59.77
2023-05-20T18:37:29.704Z,58.89
2023-05-20T18:39:58.473Z,58.64
2023-05-20T18:42:25.188Z,60.05
2023-05-20T18:50:59.270Z,61.54
2023-05-20T18:53:26.284Z,61.49
2023-05-20T18:59:34.953Z,61.53
2023-05-20T19:02:02.856Z,61.77
2023-05-20T19:04:32.485Z,61.12
2023-05-20T19:06:59.438Z,61.45
2023-05-20T19:09:26.152Z,61.86
2023-05-20T19:11:56.891Z,62.22
2023-05-20T19:14:23.522Z,62.14
2023-05-20T19:16:50.242Z,62.43
2023-05-20T19:19:16.997Z,62.40
2023-05-20T19:21:44.489Z,62.68
2023-05-20T19:24:11.281Z,63.00
2023-05-20T19:26:38.044Z,63.82
2023-05-20T19:29:04.740Z,63.50
2023-05-20T19:31:31.492Z,63.20
2023-05-20T19:33:58.214Z,63.44
2023-05-20T19:36:24.972Z,63.98
2023-05-20T19:38:51.631Z,64.61
2023-05-20T19:41:18.569Z,64.29
2023-05-20T19:43:45.289Z,63.93
2023-05-20T19:46:12.020Z,64.00
2023-05-20T19:48:38.735Z,64.36
2023-05-20T19:51:05.440Z,63.71
2023-05-20T19:53:32.115Z,63.66
2023-05-20T19:55:59.131Z,64.02
2023-05-20T19:58:25.968Z,64.71
2023-05-20T20:00:52.699Z,64.82
2023-05-20T20:03:19.557Z,65.13
2023-05-20T20:05:46.314Z,65.21
2023-05-20T20:08:12.997Z,65.61
2023-05-20T20:10:39.646Z,65.32
2023-05-20T20:13:06.300Z,65.46
2023-05-20T20:15:33.181Z,65.68
2023-05-20T20:18:01.302Z,65.28
2023-05-20T20:20:28.005Z,65.88
2023-05-20T20:22:54.878Z,66.36
2023-05-20T20:25:21.821Z,67.60
2023-05-20T20:27:48.667Z,67.39
2023-05-20T20:30:15.645Z,67.20
2023-05-20T20:32:42.426Z,67.01
2023-05-20T20:35:09.433Z,67.77
2023-05-20T20:37:37.839Z,67.81
2023-05-20T20:40:05.733Z,67.96
2023-05-20T20:42:33.629Z,67.93
2023-05-20T20:45:00.641Z,68.80
2023-05-20T20:47:29.465Z,68.67
2023-05-20T20:49:56.488Z,68.45
2023-05-20T20:52:23.455Z,69.03
2023-05-20T20:54:50.141Z,69.34
2023-05-20T20:57:17.541Z,69.19
2023-05-20T20:59:48.096Z,69.21
2023-05-20T21:02:15.003Z,69.26
2023-05-20T21:04:42.906Z,68.61
2023-05-20T21:07:09.722Z,67.78
2023-05-20T21:09:36.879Z,68.29
2023-05-20T21:12:06.932Z,68.37
2023-05-20T21:14:33.651Z,68.61
2023-05-20T21:17:00.672Z,68.65
2023-05-20T21:19:27.535Z,68.80
2023-05-20T21:21:54.230Z,68.94
2023-05-20T21:24:21.194Z,69.02
2023-05-20T21:26:48.019Z,67.73
2023-05-20T21:29:14.669Z,67.97
2023-05-20T21:31:41.338Z,68.16
2023-05-20T21:34:08.025Z,68.37
2023-05-20T21:36:34.688Z,67.93
2023-05-20T21:39:01.368Z,68.42
2023-05-20T21:41:28.030Z,68.64
2023-05-20T21:43:54.666Z,68.84
2023-05-20T21:46:21.423Z,69.13
2023-05-20T21:48:48.211Z,68.88
2023-05-20T21:51:15.027Z,69.48
2023-05-20T21:53:41.706Z,69.69
2023-05-20T21:56:08.367Z,69.62
2023-05-20T21:58:40.991Z,69.49
2023-05-20T22:01:09.958Z,69.64
2023-05-20T22:03:37.194Z,69.35
2023-05-20T22:06:05.221Z,69.05
2023-05-20T22:08:33.942Z,69.59
2023-05-20T22:11:06.027Z,68.95
2023-05-20T22:13:33.308Z,70.20
2023-05-20T22:16:00.280Z,70.37
2023-05-20T22:18:26.991Z,70.67
2023-05-20T22:20:55.007Z,69.76
2023-05-20T22:23:21.678Z,69.54
2023-05-20T22:25:48.337Z,69.33
2023-05-20T22:28:16.396Z,69.66
2023-05-20T22:30:43.243Z,69.46
2023-05-20T22:33:09.926Z,69.98
2023-05-20T22:35:36.815Z,69.16
2023-05-20T22:38:03.876Z,69.40
2023-05-20T22:40:30.685Z,69.59
2023-05-20T22:42:57.365Z,69.49
2023-05-20T22:45:24.000Z,69.73
2023-05-20T22:47:51.304Z,70.00
2023-05-20T22:50:18.434Z,70.63
2023-05-20T22:52:45.091Z,70.47
2023-05-20T22:55:12.265Z,70.53
2023-05-20T22:57:39.308Z,70.91
2023-05-20T23:00:08.067Z,70.51
2023-05-20T23:02:35.300Z,70.82
2023-05-20T23:05:04.243Z,70.75
2023-05-20T23:07:31.485Z,71.05
2023-05-20T23:09:58.123Z,71.21
2023-05-20T23:12:24.764Z,71.78
2023-05-20T23:14:51.926Z,71.65
2023-05-20T23:17:18.574Z,71.68
2023-05-20T23:19:45.219Z,71.38
2023-05-20T23:22:12.089Z,71.18
2023-05-20T23:24:38.728Z,71.74
2023-05-20T23:27:06.454Z,71.94
2023-05-20T23:29:33.405Z,72.28
2023-05-20T23:32:00.148Z,71.92
2023-05-20T23:34:27.528Z,72.50
2023-05-20T23:36:54.695Z,72.12
2023-05-20T23:39:21.794Z,72.08
2023-05-20T23:41:48.459Z,72.16
2023-05-20T23:44:15.203Z,72.90
2023-05-20T23:46:42.180Z,72.83
2023-05-20T23:49:10.396Z,72.75
2023-05-20T23:51:37.066Z,72.98
2023-05-20T23:54:04.301Z,72.89
2023-05-20T23:56:30.960Z,72.95
2023-05-20T23:58:58.067Z,72.78
